createdAt,value
2017-08-15T00:00:48.219Z,1017.48
2017-08-15T00:01:48.243Z,1017.45
2017-08-15T00:02:48.263Z,1017.48
2017-08-15T00:03:48.287Z,1017.46
2017-08-15T00:04:48.310Z,1017.49
2017-08-15T00:05:48.337Z,1017.45
2017-08-15T00:06:48.364Z,1017.44
2017-08-15T00:07:48.385Z,1017.44
2017-08-15T00:08:48.408Z,1017.46
2017-08-15T00:09:48.431Z,1017.46
2017-08-15T00:10:48.455Z,1017.48
2017-08-15T00:11:48.483Z,1017.41
2017-08-15T00:13:48.531Z,1017.38
2017-08-15T00:14:48.553Z,1017.4
2017-08-15T00:15:48.576Z,1017.38
2017-08-15T00:16:48.602Z,1017.37
2017-08-15T00:17:48.626Z,1017.34
2017-08-15T00:18:48.646Z,1017.34
2017-08-15T00:19:48.679Z,1017.34
2017-08-15T00:20:48.697Z,1017.36
2017-08-15T00:21:48.721Z,1017.33
2017-08-15T00:22:48.745Z,1017.38
2017-08-15T00:23:48.771Z,1017.36
2017-08-15T00:24:48.794Z,1017.33
2017-08-15T00:25:48.813Z,1017.31
2017-08-15T00:26:48.840Z,1017.31
2017-08-15T00:27:48.865Z,1017.35
2017-08-15T00:28:48.888Z,1017.31
2017-08-15T00:29:48.912Z,1017.29
2017-08-15T00:30:48.933Z,1017.26
2017-08-15T00:31:48.960Z,1017.25
2017-08-15T00:32:48.987Z,1017.23
2017-08-15T00:33:49.008Z,1017.24
2017-08-15T00:34:49.031Z,1017.21
2017-08-15T00:35:49.054Z,1017.19
2017-08-15T00:36:49.081Z,1017.22
2017-08-15T00:37:49.104Z,1017.22
2017-08-15T00:38:49.126Z,1017.21
2017-08-15T00:39:49.149Z,1017.22
2017-08-15T00:40:49.173Z,1017.21
2017-08-15T00:41:49.196Z,1017.17
2017-08-15T00:42:49.218Z,1017.16
2017-08-15T00:43:49.243Z,1017.19
2017-08-15T00:45:49.292Z,1017.16
2017-08-15T00:46:49.312Z,1017.16
2017-08-15T00:47:49.342Z,1017.17
2017-08-15T00:48:49.363Z,1017.14
2017-08-15T00:49:49.384Z,1017.19
2017-08-15T00:50:49.412Z,1017.13
2017-08-15T00:51:49.437Z,1017.14
2017-08-15T00:52:49.458Z,1017.09
2017-08-15T00:53:49.482Z,1017.11
2017-08-15T00:54:49.506Z,1017.13
2017-08-15T00:55:49.529Z,1017.11
2017-08-15T00:56:49.555Z,1017.15
2017-08-15T00:57:49.578Z,1017.12
2017-08-15T00:58:49.601Z,1017.13
2017-08-15T00:59:49.625Z,1017.12
2017-08-15T01:01:49.674Z,1017.09
2017-08-15T01:02:49.696Z,1017.07
2017-08-15T01:03:49.720Z,1017.07
2017-08-15T01:04:49.744Z,1017
2017-08-15T01:05:49.762Z,1017.02
2017-08-15T01:06:49.788Z,1017.01
2017-08-15T01:07:49.814Z,1016.97
2017-08-15T01:08:49.840Z,1016.98
2017-08-15T01:09:49.863Z,1017
2017-08-15T01:10:49.883Z,1017
2017-08-15T01:11:49.910Z,1016.96
2017-08-15T01:12:49.932Z,1016.96
2017-08-15T01:13:49.954Z,1017.01
2017-08-15T01:14:49.978Z,1016.99
2017-08-15T01:15:50.004Z,1016.95
2017-08-15T01:17:50.048Z,1016.96
2017-08-15T01:18:50.075Z,1016.96
2017-08-15T01:19:50.096Z,1016.98
2017-08-15T01:20:50.124Z,1016.95
2017-08-15T01:21:50.141Z,1016.97
2017-08-15T01:22:50.169Z,1016.9
2017-08-15T01:23:50.190Z,1016.93
2017-08-15T01:24:50.212Z,1016.94
2017-08-15T01:25:50.240Z,1016.88
2017-08-15T01:26:50.262Z,1016.92
2017-08-15T01:27:50.287Z,1016.86
2017-08-15T01:28:50.310Z,1016.87
2017-08-15T01:29:50.331Z,1016.85
2017-08-15T01:30:50.358Z,1016.88
2017-08-15T01:31:50.376Z,1016.89
2017-08-15T01:33:50.426Z,1016.84
2017-08-15T01:34:50.451Z,1016.83
2017-08-15T01:35:50.473Z,1016.8
2017-08-15T01:36:50.496Z,1016.8
2017-08-15T01:37:50.525Z,1016.81
2017-08-15T01:38:50.543Z,1016.8
2017-08-15T01:39:50.568Z,1016.76
2017-08-15T01:40:50.590Z,1016.79
2017-08-15T01:41:50.616Z,1016.76
2017-08-15T01:42:50.637Z,1016.73
2017-08-15T01:43:50.657Z,1016.74
2017-08-15T01:44:50.688Z,1016.76
2017-08-15T01:45:50.712Z,1016.71
2017-08-15T01:46:50.734Z,1016.74
2017-08-15T01:48:50.781Z,1016.73
2017-08-15T01:49:50.803Z,1016.74
2017-08-15T01:50:50.825Z,1016.73
2017-08-15T01:51:50.849Z,1016.7
2017-08-15T01:52:50.875Z,1016.72
2017-08-15T01:53:50.895Z,1016.75
2017-08-15T01:54:50.920Z,1016.75
2017-08-15T01:55:50.940Z,1016.74
2017-08-15T01:56:50.971Z,1016.72
2017-08-15T01:57:50.991Z,1016.75
2017-08-15T01:58:51.016Z,1016.71
2017-08-15T01:59:51.040Z,1016.73
2017-08-15T02:00:51.059Z,1016.71
2017-08-15T02:01:51.086Z,1016.69
2017-08-15T02:02:51.107Z,1016.72
2017-08-15T02:03:51.133Z,1016.71
2017-08-15T02:04:51.156Z,1016.7
2017-08-15T02:05:51.176Z,1016.74
2017-08-15T02:06:51.204Z,1016.72
2017-08-15T02:07:51.222Z,1016.73
2017-08-15T02:08:51.248Z,1016.76
2017-08-15T02:09:51.269Z,1016.74
2017-08-15T02:10:51.295Z,1016.71
2017-08-15T02:11:51.318Z,1016.71
2017-08-15T02:12:51.343Z,1016.7
2017-08-15T02:13:51.365Z,1016.72
2017-08-15T02:14:51.390Z,1016.69
2017-08-15T02:15:51.411Z,1016.7
2017-08-15T02:16:51.435Z,1016.69
2017-08-15T02:17:51.462Z,1016.66
2017-08-15T02:18:51.481Z,1016.67
2017-08-15T02:20:51.527Z,1016.67
2017-08-15T02:21:51.552Z,1016.67
2017-08-15T02:22:51.572Z,1016.66
2017-08-15T02:23:51.600Z,1016.66
2017-08-15T02:24:51.624Z,1016.59
2017-08-15T02:25:51.650Z,1016.59
2017-08-15T02:26:51.668Z,1016.55
2017-08-15T02:27:51.697Z,1016.56
2017-08-15T02:28:51.716Z,1016.53
2017-08-15T02:29:51.741Z,1016.51
2017-08-15T02:30:51.761Z,1016.54
2017-08-15T02:31:51.785Z,1016.54
2017-08-15T02:32:51.808Z,1016.54
2017-08-15T02:33:51.834Z,1016.52
2017-08-15T02:34:51.856Z,1016.49
2017-08-15T02:36:51.904Z,1016.51
2017-08-15T02:37:51.924Z,1016.5
2017-08-15T02:38:51.952Z,1016.51
2017-08-15T02:39:51.973Z,1016.55
2017-08-15T02:40:51.996Z,1016.49
2017-08-15T02:41:52.018Z,1016.52
2017-08-15T02:42:52.040Z,1016.49
2017-08-15T02:43:52.066Z,1016.45
2017-08-15T02:44:52.091Z,1016.51
2017-08-15T02:45:52.115Z,1016.45
2017-08-15T02:46:52.135Z,1016.48
2017-08-15T02:47:52.157Z,1016.46
2017-08-15T02:48:52.180Z,1016.46
2017-08-15T02:49:52.204Z,1016.43
2017-08-15T02:50:52.227Z,1016.48
2017-08-15T02:52:52.277Z,1016.45
2017-08-15T02:53:52.298Z,1016.45
2017-08-15T02:54:52.322Z,1016.47
2017-08-15T02:55:52.344Z,1016.45
2017-08-15T02:56:52.367Z,1016.51
2017-08-15T02:57:52.392Z,1016.47
2017-08-15T02:58:52.418Z,1016.44
2017-08-15T02:59:52.437Z,1016.44
2017-08-15T03:00:52.458Z,1016.42
2017-08-15T03:01:52.484Z,1016.41
2017-08-15T03:02:52.506Z,1016.41
2017-08-15T03:03:52.530Z,1016.4
2017-08-15T03:04:52.554Z,1016.34
2017-08-15T03:05:52.580Z,1016.38
2017-08-15T03:06:52.601Z,1016.36
2017-08-15T03:08:52.648Z,1016.32
2017-08-15T03:09:52.671Z,1016.37
2017-08-15T03:10:52.693Z,1016.36
2017-08-15T03:11:52.716Z,1016.36
2017-08-15T03:12:52.742Z,1016.37
2017-08-15T03:13:52.760Z,1016.36
2017-08-15T03:14:52.786Z,1016.36
2017-08-15T03:15:52.808Z,1016.33
2017-08-15T03:16:52.831Z,1016.29
2017-08-15T03:17:52.855Z,1016.32
2017-08-15T03:18:52.877Z,1016.31
2017-08-15T03:19:52.903Z,1016.31
2017-08-15T03:20:52.926Z,1016.33
2017-08-15T03:21:52.949Z,1016.33
2017-08-15T03:23:52.997Z,1016.27
2017-08-15T03:24:53.019Z,1016.3
2017-08-15T03:25:53.040Z,1016.31
2017-08-15T03:26:53.062Z,1016.31
2017-08-15T03:27:53.089Z,1016.32
2017-08-15T03:28:53.108Z,1016.33
2017-08-15T03:29:53.135Z,1016.29
2017-08-15T03:30:53.160Z,1016.31
2017-08-15T03:31:53.179Z,1016.34
2017-08-15T03:32:53.202Z,1016.31
2017-08-15T03:33:53.226Z,1016.29
2017-08-15T03:34:53.251Z,1016.33
2017-08-15T03:35:53.277Z,1016.32
2017-08-15T03:36:53.295Z,1016.31
2017-08-15T03:37:53.318Z,1016.29
2017-08-15T03:38:53.343Z,1016.27
2017-08-15T03:39:53.367Z,1016.3
2017-08-15T03:40:53.385Z,1016.29
2017-08-15T03:41:53.416Z,1016.27
2017-08-15T03:42:53.436Z,1016.3
2017-08-15T03:43:53.457Z,1016.3
2017-08-15T03:44:53.477Z,1016.32
2017-08-15T03:45:53.503Z,1016.34
2017-08-15T03:46:53.526Z,1016.32
2017-08-15T03:47:53.548Z,1016.34
2017-08-15T03:48:53.574Z,1016.35
2017-08-15T03:49:53.598Z,1016.34
2017-08-15T03:50:53.625Z,1016.36
2017-08-15T03:51:53.641Z,1016.37
2017-08-15T03:52:53.667Z,1016.34
2017-08-15T03:53:53.684Z,1016.39
2017-08-15T03:55:53.736Z,1016.4
2017-08-15T03:56:53.762Z,1016.37
2017-08-15T03:57:53.781Z,1016.38
2017-08-15T03:58:53.803Z,1016.37
2017-08-15T03:59:53.828Z,1016.38
2017-08-15T04:00:53.852Z,1016.39
2017-08-15T04:01:53.875Z,1016.38
2017-08-15T04:02:53.897Z,1016.37
2017-08-15T04:03:53.922Z,1016.32
2017-08-15T04:04:53.945Z,1016.32
2017-08-15T04:05:53.964Z,1016.33
2017-08-15T04:06:53.990Z,1016.27
2017-08-15T04:07:54.014Z,1016.3
2017-08-15T04:08:54.037Z,1016.27
2017-08-15T04:09:54.059Z,1016.32
2017-08-15T04:11:54.105Z,1016.35
2017-08-15T04:12:54.129Z,1016.32
2017-08-15T04:13:54.152Z,1016.32
2017-08-15T04:14:54.173Z,1016.33
2017-08-15T04:15:54.197Z,1016.36
2017-08-15T04:16:54.268Z,1016.36
2017-08-15T04:17:54.245Z,1016.38
2017-08-15T04:18:54.266Z,1016.37
2017-08-15T04:19:54.290Z,1016.42
2017-08-15T04:20:54.309Z,1016.39
2017-08-15T04:21:54.338Z,1016.42
2017-08-15T04:22:54.361Z,1016.42
2017-08-15T04:23:54.379Z,1016.39
2017-08-15T04:24:54.410Z,1016.46
2017-08-15T04:25:54.432Z,1016.48
2017-08-15T04:27:54.473Z,1016.47
2017-08-15T04:28:54.500Z,1016.46
2017-08-15T04:29:54.524Z,1016.45
2017-08-15T04:30:54.542Z,1016.44
2017-08-15T04:31:54.572Z,1016.47
2017-08-15T04:32:54.592Z,1016.46
2017-08-15T04:33:54.618Z,1016.46
2017-08-15T04:34:54.639Z,1016.45
2017-08-15T04:35:54.657Z,1016.46
2017-08-15T04:36:54.689Z,1016.45
2017-08-15T04:37:54.708Z,1016.46
2017-08-15T04:38:54.733Z,1016.48
2017-08-15T04:39:54.752Z,1016.51
2017-08-15T04:40:54.777Z,1016.48
2017-08-15T04:41:54.804Z,1016.48
2017-08-15T04:43:54.850Z,1016.5
2017-08-15T04:44:54.871Z,1016.46
2017-08-15T04:45:54.896Z,1016.51
2017-08-15T04:46:54.917Z,1016.47
2017-08-15T04:47:54.941Z,1016.5
2017-08-15T04:48:54.961Z,1016.47
2017-08-15T04:49:54.989Z,1016.49
2017-08-15T04:50:55.010Z,1016.5
2017-08-15T04:51:55.035Z,1016.51
2017-08-15T04:52:55.055Z,1016.5
2017-08-15T04:53:55.080Z,1016.53
2017-08-15T04:54:55.106Z,1016.49
2017-08-15T04:55:55.127Z,1016.58
2017-08-15T04:56:55.154Z,1016.59
2017-08-15T04:58:55.200Z,1016.62
2017-08-15T04:59:55.218Z,1016.66
2017-08-15T05:00:55.252Z,1016.61
2017-08-15T05:01:55.274Z,1016.66
2017-08-15T05:02:55.300Z,1016.65
2017-08-15T05:03:55.321Z,1016.7
2017-08-15T05:04:55.353Z,1016.75
2017-08-15T05:05:55.374Z,1016.73
2017-08-15T05:06:55.401Z,1016.8
2017-08-15T05:07:55.427Z,1016.79
2017-08-15T05:08:55.453Z,1016.78
2017-08-15T05:09:55.478Z,1016.81
2017-08-15T05:10:55.506Z,1016.81
2017-08-15T05:11:55.537Z,1016.82
2017-08-15T05:12:55.563Z,1016.87
2017-08-15T05:13:55.592Z,1016.89
2017-08-15T05:14:55.622Z,1016.94
2017-08-15T05:15:55.644Z,1016.95
2017-08-15T05:16:55.678Z,1017.01
2017-08-15T05:17:55.703Z,1016.98
2017-08-15T05:18:55.735Z,1017.01
2017-08-15T05:19:55.760Z,1017.04
2017-08-15T05:20:55.791Z,1017.12
2017-08-15T05:21:55.824Z,1017.12
2017-08-15T05:22:55.848Z,1017.1
2017-08-15T05:23:55.882Z,1017.1
2017-08-15T05:24:55.906Z,1017.06
2017-08-15T05:25:55.940Z,1017.05
2017-08-15T05:26:55.972Z,1017.09
2017-08-15T05:27:56.000Z,1017.08
2017-08-15T05:28:56.029Z,1017.11
2017-08-15T05:30:56.091Z,1017.18
2017-08-15T05:31:56.127Z,1017.15
2017-08-15T05:32:56.153Z,1017.18
2017-08-15T05:33:56.188Z,1017.14
2017-08-15T05:34:56.219Z,1017.12
2017-08-15T05:35:56.248Z,1017.11
2017-08-15T05:36:56.282Z,1017.15
2017-08-15T05:37:56.310Z,1017.13
2017-08-15T05:38:56.350Z,1017.12
2017-08-15T05:39:56.376Z,1017.13
2017-08-15T05:40:56.411Z,1017.14
2017-08-15T05:41:56.449Z,1017.18
2017-08-15T05:42:56.476Z,1017.18
2017-08-15T05:43:56.508Z,1017.17
2017-08-15T05:44:56.543Z,1017.16
2017-08-15T05:46:56.608Z,1017.19
2017-08-15T05:47:56.640Z,1017.18
2017-08-15T05:48:56.673Z,1017.23
2017-08-15T05:49:56.713Z,1017.25
2017-08-15T05:50:56.736Z,1017.39
2017-08-15T05:51:56.770Z,1017.46
2017-08-15T05:52:56.806Z,1017.49
2017-08-15T05:53:56.839Z,1017.53
2017-08-15T05:54:56.872Z,1017.53
2017-08-15T05:55:56.914Z,1017.59
2017-08-15T05:56:56.942Z,1017.57
2017-08-15T05:57:56.973Z,1017.53
2017-08-15T05:58:57.010Z,1017.57
2017-08-15T05:59:57.039Z,1017.59
2017-08-15T06:00:57.071Z,1017.58
2017-08-15T06:02:57.153Z,1017.57
2017-08-15T06:03:57.176Z,1017.61
2017-08-15T06:04:57.211Z,1017.61
2017-08-15T06:05:57.241Z,1017.56
2017-08-15T06:06:57.280Z,1017.59
2017-08-15T06:07:57.310Z,1017.55
2017-08-15T06:08:57.344Z,1017.52
2017-08-15T06:09:57.379Z,1017.49
2017-08-15T06:10:57.415Z,1017.52
2017-08-15T06:11:57.446Z,1017.52
2017-08-15T06:12:57.478Z,1017.46
2017-08-15T06:13:57.516Z,1017.48
2017-08-15T06:14:57.547Z,1017.53
2017-08-15T06:15:57.586Z,1017.5
2017-08-15T06:16:57.618Z,1017.47
2017-08-15T06:18:57.688Z,1017.52
2017-08-15T06:19:57.721Z,1017.6
2017-08-15T06:20:57.759Z,1017.65
2017-08-15T06:21:57.795Z,1017.7
2017-08-15T06:22:57.828Z,1017.71
2017-08-15T06:23:57.862Z,1017.79
2017-08-15T06:24:57.897Z,1017.79
2017-08-15T06:25:57.930Z,1017.81
2017-08-15T06:26:57.967Z,1017.79
2017-08-15T06:27:58.001Z,1017.87
2017-08-15T06:28:58.037Z,1017.95
2017-08-15T06:29:58.069Z,1017.94
2017-08-15T06:30:58.106Z,1017.92
2017-08-15T06:31:58.144Z,1017.97
2017-08-15T06:33:58.213Z,1017.97
2017-08-15T06:34:58.248Z,1017.95
2017-08-15T06:35:58.284Z,1017.98
2017-08-15T06:36:58.315Z,1017.99
2017-08-15T06:37:58.355Z,1018.11
2017-08-15T06:38:58.391Z,1018.11
2017-08-15T06:39:58.424Z,1018.19
2017-08-15T06:40:58.463Z,1018.15
2017-08-15T06:41:58.495Z,1018.27
2017-08-15T06:42:58.531Z,1018.25
2017-08-15T06:43:58.565Z,1018.23
2017-08-15T06:44:58.601Z,1018.24
2017-08-15T06:45:58.640Z,1018.17
2017-08-15T06:46:58.671Z,1018.04
2017-08-15T06:47:58.710Z,1018.02
2017-08-15T06:48:58.749Z,1018.05
2017-08-15T06:49:58.778Z,1017.99
2017-08-15T06:50:58.816Z,1017.97
2017-08-15T06:51:58.852Z,1017.92
2017-08-15T06:52:58.889Z,1017.85
2017-08-15T06:53:58.927Z,1017.8
2017-08-15T06:54:58.959Z,1017.81
2017-08-15T06:55:58.996Z,1017.77
2017-08-15T06:56:59.029Z,1017.71
2017-08-15T06:57:59.071Z,1017.67
2017-08-15T06:58:59.105Z,1017.66
2017-08-15T06:59:59.143Z,1017.63
2017-08-15T07:00:59.176Z,1017.56
2017-08-15T07:01:59.210Z,1017.57
2017-08-15T07:02:59.248Z,1017.55
2017-08-15T07:03:59.286Z,1017.52
2017-08-15T07:05:59.355Z,1017.52
2017-08-15T07:06:59.394Z,1017.45
2017-08-15T07:07:59.424Z,1017.39
2017-08-15T07:08:59.464Z,1017.42
2017-08-15T07:09:59.501Z,1017.37
2017-08-15T07:10:59.538Z,1017.34
2017-08-15T07:11:59.572Z,1017.33
2017-08-15T07:12:59.615Z,1017.28
2017-08-15T07:13:59.647Z,1017.23
2017-08-15T07:14:59.685Z,1017.28
2017-08-15T07:15:59.719Z,1017.25
2017-08-15T07:16:59.756Z,1017.2
2017-08-15T07:17:59.812Z,1017.25
2017-08-15T07:18:59.827Z,1017.21
2017-08-15T07:19:59.865Z,1017.21
2017-08-15T07:21:59.939Z,1017.2
2017-08-15T07:22:59.974Z,1017.21
2017-08-15T07:24:00.009Z,1017.16
2017-08-15T07:25:00.050Z,1017.17
2017-08-15T07:26:00.085Z,1017.12
2017-08-15T07:27:00.121Z,1017.06
2017-08-15T07:28:00.158Z,1017.08
2017-08-15T07:29:00.193Z,1017.03
2017-08-15T07:30:00.232Z,1016.99
2017-08-15T07:31:00.268Z,1017.07
2017-08-15T07:32:00.304Z,1017.05
2017-08-15T07:33:00.337Z,1017
2017-08-15T07:34:00.376Z,1016.96
2017-08-15T07:35:00.415Z,1016.95
2017-08-15T07:36:00.450Z,1016.92
2017-08-15T07:38:00.522Z,1016.88
2017-08-15T07:39:00.560Z,1016.89
2017-08-15T07:40:00.596Z,1016.87
2017-08-15T07:41:00.634Z,1016.88
2017-08-15T07:42:00.670Z,1016.84
2017-08-15T07:43:00.708Z,1016.79
2017-08-15T07:44:00.742Z,1016.75
2017-08-15T07:45:00.779Z,1016.76
2017-08-15T07:46:00.815Z,1016.75
2017-08-15T07:47:00.854Z,1016.75
2017-08-15T07:48:00.886Z,1016.71
2017-08-15T07:49:00.925Z,1016.67
2017-08-15T07:50:00.960Z,1016.65
2017-08-15T07:51:00.997Z,1016.6
2017-08-15T07:52:01.034Z,1016.57
2017-08-15T07:54:01.107Z,1016.58
2017-08-15T07:55:01.144Z,1016.56
2017-08-15T07:56:01.179Z,1016.63
2017-08-15T07:57:01.215Z,1016.58
2017-08-15T07:58:01.253Z,1016.55
2017-08-15T07:59:01.292Z,1016.52
2017-08-15T08:00:01.330Z,1016.35
2017-08-15T08:01:01.360Z,1016.41
2017-08-15T08:02:01.397Z,1016.28
2017-08-15T08:03:01.433Z,1016.29
2017-08-15T08:04:01.469Z,1016.25
2017-08-15T08:05:01.507Z,1016.25
2017-08-15T08:06:01.544Z,1016.22
2017-08-15T08:07:01.583Z,1016.25
2017-08-15T08:09:01.650Z,1016.18
2017-08-15T08:10:01.685Z,1016.16
2017-08-15T08:11:01.719Z,1016.17
2017-08-15T08:12:01.757Z,1016.18
2017-08-15T08:13:01.793Z,1016.12
2017-08-15T08:14:01.827Z,1016.13
2017-08-15T08:15:01.863Z,1016.13
2017-08-15T08:16:01.894Z,1016.11
2017-08-15T08:17:01.934Z,1016.09
2017-08-15T08:18:01.968Z,1016.11
2017-08-15T08:19:02.001Z,1016.08
2017-08-15T08:20:02.042Z,1016.04
2017-08-15T08:21:02.074Z,1016.13
2017-08-15T08:22:02.117Z,1016.29
2017-08-15T08:23:02.146Z,1016.33
2017-08-15T08:24:02.184Z,1016.38
2017-08-15T08:25:02.215Z,1016.31
2017-08-15T08:26:02.253Z,1016.27
2017-08-15T08:27:02.285Z,1016.22
2017-08-15T08:28:02.355Z,1016.21
2017-08-15T08:29:02.362Z,1016.11
2017-08-15T08:30:02.391Z,1016.19
2017-08-15T08:31:02.428Z,1016.14
2017-08-15T08:32:02.467Z,1016.15
2017-08-15T08:33:02.502Z,1016.16
2017-08-15T08:34:02.537Z,1016.12
2017-08-15T08:35:02.572Z,1016.14
2017-08-15T08:36:02.606Z,1016.15
2017-08-15T08:37:02.641Z,1016.12
2017-08-15T08:38:02.676Z,1016.07
2017-08-15T08:39:02.712Z,1016.04
2017-08-15T08:41:02.782Z,1015.95
2017-08-15T08:42:02.813Z,1015.99
2017-08-15T08:43:02.851Z,1015.84
2017-08-15T08:44:02.887Z,1015.77
2017-08-15T08:45:02.918Z,1015.75
2017-08-15T08:46:02.955Z,1015.77
2017-08-15T08:47:02.989Z,1015.73
2017-08-15T08:48:03.027Z,1015.72
2017-08-15T08:49:03.056Z,1015.71
2017-08-15T08:50:03.091Z,1015.72
2017-08-15T08:51:03.130Z,1015.68
2017-08-15T08:52:03.164Z,1015.64
2017-08-15T08:53:03.197Z,1015.63
2017-08-15T08:54:03.227Z,1015.55
2017-08-15T08:55:03.266Z,1015.53
2017-08-15T08:57:03.340Z,1015.49
2017-08-15T08:58:03.369Z,1015.49
2017-08-15T08:59:03.405Z,1015.49
2017-08-15T09:00:03.438Z,1015.45
2017-08-15T09:01:03.477Z,1015.42
2017-08-15T09:02:03.511Z,1015.38
2017-08-15T09:03:03.545Z,1015.35
2017-08-15T09:04:03.580Z,1015.38
2017-08-15T09:05:03.611Z,1015.37
2017-08-15T09:06:03.648Z,1015.43
2017-08-15T09:07:03.681Z,1015.47
2017-08-15T09:08:03.714Z,1015.33
2017-08-15T09:09:03.753Z,1015.38
2017-08-15T09:10:03.788Z,1015.35
2017-08-15T09:11:03.820Z,1015.33
2017-08-15T09:13:03.889Z,1015.32
2017-08-15T09:14:03.919Z,1015.33
2017-08-15T09:15:03.958Z,1015.32
2017-08-15T09:16:03.991Z,1015.29
2017-08-15T09:17:04.027Z,1015.32
2017-08-15T09:18:04.061Z,1015.3
2017-08-15T09:19:04.096Z,1015.39
2017-08-15T09:20:04.129Z,1015.4
2017-08-15T09:21:04.165Z,1015.36
2017-08-15T09:22:04.194Z,1015.44
2017-08-15T09:23:04.230Z,1015.42
2017-08-15T09:24:04.264Z,1015.47
2017-08-15T09:25:04.299Z,1015.45
2017-08-15T09:26:04.330Z,1015.47
2017-08-15T09:27:04.362Z,1015.48
2017-08-15T09:29:04.431Z,1015.43
2017-08-15T09:30:04.468Z,1015.36
2017-08-15T09:31:04.500Z,1015.59
2017-08-15T09:32:04.536Z,1015.57
2017-08-15T09:33:04.565Z,1015.49
2017-08-15T09:34:04.602Z,1015.49
2017-08-15T09:35:04.638Z,1015.56
2017-08-15T09:36:04.668Z,1015.55
2017-08-15T09:37:04.706Z,1015.5
2017-08-15T09:38:04.736Z,1015.6
2017-08-15T09:39:04.768Z,1015.54
2017-08-15T09:40:04.804Z,1015.46
2017-08-15T09:41:04.836Z,1015.49
2017-08-15T09:42:04.871Z,1015.52
2017-08-15T09:44:04.939Z,1015.47
2017-08-15T09:45:04.971Z,1015.51
2017-08-15T09:46:05.005Z,1015.44
2017-08-15T09:47:05.042Z,1015.51
2017-08-15T09:48:05.071Z,1015.47
2017-08-15T09:49:05.102Z,1015.44
2017-08-15T09:50:05.134Z,1015.49
2017-08-15T09:51:05.171Z,1015.44
2017-08-15T09:52:05.200Z,1015.42
2017-08-15T09:53:05.235Z,1015.39
2017-08-15T09:54:05.274Z,1015.38
2017-08-15T09:55:05.303Z,1015.46
2017-08-15T09:56:05.336Z,1015.43
2017-08-15T09:57:05.364Z,1015.41
2017-08-15T09:58:05.399Z,1015.43
2017-08-15T09:59:05.433Z,1015.38
2017-08-15T10:00:05.466Z,1015.33
2017-08-15T10:01:05.502Z,1015.33
2017-08-15T10:02:05.535Z,1015.36
2017-08-15T10:03:05.565Z,1015.33
2017-08-15T10:04:05.597Z,1015.31
2017-08-15T10:05:05.626Z,1015.34
2017-08-15T10:06:05.667Z,1015.35
2017-08-15T10:07:05.698Z,1015.33
2017-08-15T10:08:05.743Z,1015.32
2017-08-15T10:09:05.765Z,1015.35
2017-08-15T10:10:05.797Z,1015.26
2017-08-15T10:11:05.829Z,1015.28
2017-08-15T10:12:05.860Z,1015.24
2017-08-15T10:13:05.890Z,1015.2
2017-08-15T10:14:05.924Z,1015.2
2017-08-15T10:16:05.990Z,1015.16
2017-08-15T10:17:06.026Z,1015.15
2017-08-15T10:18:06.057Z,1015.11
2017-08-15T10:19:06.095Z,1015.11
2017-08-15T10:20:06.124Z,1015.08
2017-08-15T10:21:06.158Z,1015.02
2017-08-15T10:22:06.186Z,1014.98
2017-08-15T10:23:06.225Z,1014.95
2017-08-15T10:24:06.256Z,1014.94
2017-08-15T10:25:06.284Z,1014.96
2017-08-15T10:26:06.318Z,1014.9
2017-08-15T10:27:06.355Z,1014.87
2017-08-15T10:28:06.382Z,1014.87
2017-08-15T10:29:06.415Z,1014.88
2017-08-15T10:30:06.451Z,1014.91
2017-08-15T10:32:06.517Z,1014.9
2017-08-15T10:33:06.547Z,1014.86
2017-08-15T10:34:06.575Z,1014.91
2017-08-15T10:35:06.611Z,1014.89
2017-08-15T10:36:06.640Z,1014.85
2017-08-15T10:37:06.675Z,1014.89
2017-08-15T10:38:06.709Z,1014.88
2017-08-15T10:39:06.739Z,1014.89
2017-08-15T10:40:06.769Z,1014.9
2017-08-15T10:41:06.803Z,1014.94
2017-08-15T10:42:06.834Z,1014.95
2017-08-15T10:43:06.865Z,1014.99
2017-08-15T10:44:06.898Z,1015.04
2017-08-15T10:45:06.929Z,1015.09
2017-08-15T10:46:06.958Z,1015.09
2017-08-15T10:48:07.025Z,1015.11
2017-08-15T10:49:07.057Z,1015.12
2017-08-15T10:50:07.090Z,1015.06
2017-08-15T10:51:07.120Z,1015.05
2017-08-15T10:52:07.149Z,1015.04
2017-08-15T10:53:07.185Z,1015.12
2017-08-15T10:54:07.215Z,1015.12
2017-08-15T10:55:07.246Z,1015.11
2017-08-15T10:56:07.279Z,1015.08
2017-08-15T10:57:07.308Z,1015.03
2017-08-15T10:58:07.341Z,1015
2017-08-15T10:59:07.372Z,1015.02
2017-08-15T11:00:07.405Z,1014.99
2017-08-15T11:01:07.436Z,1014.94
2017-08-15T11:02:07.463Z,1015
2017-08-15T11:04:07.524Z,1014.98
2017-08-15T11:05:07.560Z,1014.96
2017-08-15T11:06:07.586Z,1014.96
2017-08-15T11:07:07.620Z,1014.99
2017-08-15T11:08:07.652Z,1014.98
2017-08-15T11:09:07.679Z,1015.01
2017-08-15T11:10:07.713Z,1014.96
2017-08-15T11:11:07.743Z,1015.02
2017-08-15T11:12:07.777Z,1014.92
2017-08-15T11:13:07.803Z,1014.99
2017-08-15T11:14:07.840Z,1014.98
2017-08-15T11:15:07.865Z,1014.94
2017-08-15T11:16:07.899Z,1014.94
2017-08-15T11:17:07.928Z,1014.94
2017-08-15T11:19:07.990Z,1014.85
2017-08-15T11:20:08.023Z,1014.83
2017-08-15T11:21:08.053Z,1014.8
2017-08-15T11:22:08.083Z,1014.75
2017-08-15T11:23:08.112Z,1014.71
2017-08-15T11:24:08.144Z,1014.64
2017-08-15T11:25:08.175Z,1014.62
2017-08-15T11:26:08.202Z,1014.6
2017-08-15T11:27:08.235Z,1014.57
2017-08-15T11:28:08.262Z,1014.59
2017-08-15T11:29:08.296Z,1014.74
2017-08-15T11:30:08.328Z,1014.55
2017-08-15T11:31:08.359Z,1014.56
2017-08-15T11:32:08.388Z,1014.53
2017-08-15T11:33:08.419Z,1014.53
2017-08-15T11:34:08.446Z,1014.52
2017-08-15T11:35:08.482Z,1014.47
2017-08-15T11:36:08.509Z,1014.52
2017-08-15T11:37:08.541Z,1014.44
2017-08-15T11:38:08.570Z,1014.46
2017-08-15T11:39:08.598Z,1014.4
2017-08-15T11:40:08.631Z,1014.45
2017-08-15T11:41:08.661Z,1014.43
2017-08-15T11:42:08.688Z,1014.44
2017-08-15T11:43:08.717Z,1014.44
2017-08-15T11:44:08.749Z,1014.47
2017-08-15T11:45:08.780Z,1014.51
2017-08-15T11:46:08.810Z,1014.46
2017-08-15T11:47:08.841Z,1014.47
2017-08-15T11:48:08.869Z,1014.43
2017-08-15T11:49:08.897Z,1014.36
2017-08-15T11:51:08.959Z,1014.31
2017-08-15T11:52:08.988Z,1014.31
2017-08-15T11:53:09.017Z,1014.29
2017-08-15T11:54:09.048Z,1014.28
2017-08-15T11:55:09.078Z,1014.35
2017-08-15T11:56:09.107Z,1014.26
2017-08-15T11:57:09.133Z,1014.32
2017-08-15T11:58:09.165Z,1014.26
2017-08-15T11:59:09.197Z,1014.28
2017-08-15T12:00:09.222Z,1014.3
2017-08-15T12:01:09.259Z,1014.3
2017-08-15T12:02:09.286Z,1014.31
2017-08-15T12:03:09.318Z,1014.37
2017-08-15T12:04:09.344Z,1014.36
2017-08-15T12:05:09.375Z,1014.38
2017-08-15T12:07:09.433Z,1014.43
2017-08-15T12:08:09.463Z,1014.42
2017-08-15T12:09:09.497Z,1014.44
2017-08-15T12:10:09.526Z,1014.39
2017-08-15T12:11:09.558Z,1014.35
2017-08-15T12:12:09.581Z,1014.34
2017-08-15T12:13:09.613Z,1014.31
2017-08-15T12:14:09.644Z,1014.36
2017-08-15T12:15:09.672Z,1014.3
2017-08-15T12:16:09.703Z,1014.3
2017-08-15T12:17:09.729Z,1014.26
2017-08-15T12:18:09.765Z,1014.2
2017-08-15T12:19:09.790Z,1014.18
2017-08-15T12:20:09.823Z,1014.19
2017-08-15T12:21:09.853Z,1014.15
2017-08-15T12:23:09.914Z,1014.1
2017-08-15T12:24:09.939Z,1014.09
2017-08-15T12:25:09.975Z,1014.1
2017-08-15T12:26:10.000Z,1014.07
2017-08-15T12:27:10.030Z,1014.06
2017-08-15T12:28:10.061Z,1014.01
2017-08-15T12:29:10.092Z,1014
2017-08-15T12:30:10.119Z,1013.98
2017-08-15T12:31:10.151Z,1014.02
2017-08-15T12:32:10.180Z,1014.01
2017-08-15T12:33:10.208Z,1013.96
2017-08-15T12:34:10.239Z,1014.03
2017-08-15T12:35:10.270Z,1014.06
2017-08-15T12:36:10.298Z,1014.06
2017-08-15T12:37:10.333Z,1014.1
2017-08-15T12:39:10.391Z,1014.02
2017-08-15T12:40:10.420Z,1013.96
2017-08-15T12:41:10.448Z,1013.95
2017-08-15T12:42:10.486Z,1013.89
2017-08-15T12:43:10.508Z,1013.91
2017-08-15T12:44:10.537Z,1013.93
2017-08-15T12:45:10.565Z,1013.89
2017-08-15T12:46:10.596Z,1013.87
2017-08-15T12:47:10.626Z,1013.87
2017-08-15T12:48:10.652Z,1013.89
2017-08-15T12:49:10.684Z,1013.89